Augusta, Indiana
Current Conditions -  °F | °C
As of 10:15 PM on Wednesday 26 Nov 2014 (Local Time) from KHNB Reporting Station
Clear Clear  
Wind Chill: 30°   Ceiling: Unl
Heat Index: 36°   Visibility: 8mi
Dew Point: 28°   Wind: 7mph
Humidity: 75%   Direction: 360°N
Pressure: 30.06"   Gusts: NA
Location:  38.3488°N, 87.2217°W
Report Text: KHNB 270415Z AUTO 36006KT 8SM CLR 02/M02 A3006 RMK AO1
Loading
Personal Weather Stations






























Interactive Weather Map New forecast layout! Learn more

10-Day Weather Forecast

Advertisements
Track Severe Weather on mobile